Time;durP1;ratioP1;P1;durP2;ratioP2;P2;SDS_P1;SDS_P2;PMS_P1;PMS_P2;Temp;Humidity;BMP_temperature;BMP_pressure;BME280_temperature;BME280_humidity;BME280_pressure;Samples;Min_cycle;Max_cycle;Signal;HPM_P1;HPM_P2
2022/03/01 00:01:30;;;;;;;21.67;12.53;;;3.20;99.90;;;;;;5029739;28;20546;-63
2022/03/01 00:04:00;;;;;;;17.63;11.40;;;3.10;99.90;;;;;;5027105;28;20463;-63
2022/03/01 00:06:29;;;;;;;18.87;11.73;;;3.30;99.90;;;;;;5037385;28;20488;-63
2022/03/01 00:08:57;;;;;;;19.37;12.20;;;3.20;99.90;;;;;;5048217;28;20462;-63
2022/03/01 00:11:25;;;;;;;20.93;12.43;;;3.30;99.90;;;;;;5051875;28;20561;-63
2022/03/01 00:13:56;;;;;;;20.13;11.87;;;3.20;99.90;;;;;;5033809;28;20551;-63
2022/03/01 00:16:24;;;;;;;17.10;10.97;;;3.10;99.90;;;;;;5033459;28;20496;-63
2022/03/01 00:18:52;;;;;;;19.60;12.27;;;3.20;99.90;;;;;;5033518;28;20821;-63
2022/03/01 00:21:22;;;;;;;19.23;11.87;;;3.20;99.90;;;;;;5033222;28;20480;-63
2022/03/01 00:23:51;;;;;;;18.53;11.40;;;3.10;99.90;;;;;;5033608;28;21022;-63
2022/03/01 00:26:19;;;;;;;17.90;10.83;;;3.10;99.90;;;;;;5033542;28;21071;-63
2022/03/01 00:28:47;;;;;;;20.97;11.70;;;3.10;99.90;;;;;;5050158;28;21113;-62
2022/03/01 00:31:15;;;;;;;20.30;12.10;;;3.10;99.90;;;;;;5053216;28;20482;-63
2022/03/01 00:33:44;;;;;;;21.03;12.23;;;3.10;99.90;;;;;;5030411;28;21153;-63
2022/03/01 00:36:12;;;;;;;21.33;12.03;;;3.10;99.90;;;;;;5038028;28;20831;-63
2022/03/01 00:38:41;;;;;;;22.47;12.50;;;3.10;99.90;;;;;;5033381;28;20549;-63
2022/03/01 00:41:09;;;;;;;19.73;12.23;;;3.10;99.90;;;;;;5033090;28;20474;-63
2022/03/01 00:43:40;;;;;;;19.37;12.27;;;3.10;99.90;;;;;;5033008;28;20481;-62
2022/03/01 00:46:08;;;;;;;20.83;12.03;;;3.10;99.90;;;;;;5033169;28;20481;-63
2022/03/01 00:48:36;;;;;;;17.60;10.70;;;3.10;99.90;;;;;;5048251;28;20804;-63
2022/03/01 00:51:05;;;;;;;19.13;12.07;;;3.10;99.90;;;;;;5053457;28;20466;-63
2022/03/01 00:53:34;;;;;;;17.83;11.03;;;3.00;99.90;;;;;;5033985;28;20490;-63
2022/03/01 00:56:04;;;;;;;20.10;11.40;;;3.00;99.90;;;;;;5033140;28;20465;-63
2022/03/01 00:58:32;;;;;;;20.77;11.10;;;3.00;99.90;;;;;;5032754;28;20894;-63
2022/03/01 01:01:00;;;;;;;18.53;11.20;;;3.00;99.90;;;;;;5033077;28;20975;-63
2022/03/01 01:03:29;;;;;;;19.37;11.40;;;3.00;99.90;;;;;;5031731;28;21060;-63
2022/03/01 01:05:57;;;;;;;20.20;11.27;;;2.90;99.90;;;;;;5030330;28;20980;-63
2022/03/01 01:08:25;;;;;;;20.47;11.93;;;2.90;99.90;;;;;;5045464;28;20462;-63
2022/03/01 01:10:54;;;;;;;16.90;10.97;;;2.90;99.90;;;;;;5052738;28;20521;-63
2022/03/01 01:13:24;;;;;;;19.17;11.80;;;2.80;99.90;;;;;;5035671;28;20816;-63
2022/03/01 01:15:52;;;;;;;18.17;10.83;;;2.80;99.90;;;;;;5032795;28;20910;-60
2022/03/01 01:18:20;;;;;;;17.07;10.63;;;2.80;99.90;;;;;;5032607;28;20466;-62
2022/03/01 01:20:48;;;;;;;19.47;11.70;;;2.80;99.90;;;;;;5031950;28;20797;-63
2022/03/01 01:23:16;;;;;;;17.43;10.67;;;2.90;99.90;;;;;;5032232;28;20479;-63
2022/03/01 01:25:45;;;;;;;18.83;11.30;;;2.80;99.90;;;;;;5032198;28;20866;-63
2022/03/01 01:28:15;;;;;;;16.70;10.67;;;2.90;99.90;;;;;;5044380;28;20541;-63
2022/03/01 01:30:44;;;;;;;15.50;10.20;;;2.90;99.90;;;;;;5052107;28;20464;-63
2022/03/01 01:33:12;;;;;;;18.70;10.90;;;2.90;99.90;;;;;;5035460;28;20474;-60
2022/03/01 01:35:41;;;;;;;19.77;11.07;;;2.90;99.90;;;;;;5043604;28;20472;-63
2022/03/01 01:38:09;;;;;;;18.63;10.97;;;2.80;99.90;;;;;;5036747;28;20485;-63
2022/03/01 01:40:37;;;;;;;17.67;11.13;;;2.80;99.90;;;;;;5032043;28;21001;-62
2022/03/01 01:43:06;;;;;;;18.20;10.40;;;2.80;99.90;;;;;;5032055;28;20558;-63
2022/03/01 01:45:35;;;;;;;17.97;10.93;;;2.80;99.90;;;;;;5031932;28;20477;-63
2022/03/01 01:48:05;;;;;;;18.33;10.40;;;2.70;99.90;;;;;;5042605;28;20467;-63
2022/03/01 01:50:35;;;;;;;22.50;11.37;;;2.70;99.90;;;;;;5051800;28;20542;-63
2022/03/01 01:53:04;;;;;;;19.43;10.83;;;2.70;99.90;;;;;;5037312;28;20876;-63
2022/03/01 01:55:32;;;;;;;18.87;10.77;;;2.80;99.90;;;;;;5031981;28;20476;-63
2022/03/01 01:58:00;;;;;;;17.60;10.37;;;2.70;99.90;;;;;;5031322;28;20541;-63
2022/03/01 02:00:29;;;;;;;18.37;10.33;;;2.80;99.90;;;;;;5031415;28;20503;-63
2022/03/01 02:02:59;;;;;;;17.43;10.37;;;2.80;99.90;;;;;;5031632;28;20461;-62
2022/03/01 02:05:30;;;;;;;18.23;10.50;;;2.70;99.90;;;;;;5040992;28;20546;-63
2022/03/01 02:07:59;;;;;;;18.53;10.93;;;2.80;99.90;;;;;;5047491;28;20460;-63
2022/03/01 02:10:27;;;;;;;17.53;9.67;;;2.80;99.90;;;;;;5051447;28;20476;-63
2022/03/01 02:12:57;;;;;;;18.07;10.10;;;2.80;99.90;;;;;;5031497;28;20545;-61
2022/03/01 02:15:28;;;;;;;15.87;9.63;;;2.70;99.90;;;;;;5011516;28;20481;-63
2022/03/01 02:17:56;;;;;;;16.73;9.53;;;2.70;99.90;;;;;;5024968;28;20544;-63
2022/03/01 02:20:25;;;;;;;17.53;10.03;;;2.60;99.90;;;;;;5031029;28;20491;-60
2022/03/01 02:22:55;;;;;;;16.23;10.30;;;2.50;99.90;;;;;;5026707;28;20486;-63
2022/03/01 02:25:23;;;;;;;15.50;9.83;;;2.50;99.90;;;;;;5031340;28;20977;-63
2022/03/01 02:27:52;;;;;;;18.13;9.73;;;2.50;99.90;;;;;;5040189;28;20487;-63
2022/03/01 02:30:20;;;;;;;17.63;9.97;;;2.50;99.90;;;;;;5051234;28;20556;-63
2022/03/01 02:32:49;;;;;;;17.73;10.50;;;2.50;99.90;;;;;;5037566;28;20531;-63
2022/03/01 02:35:17;;;;;;;17.23;9.57;;;2.40;99.90;;;;;;5039185;28;20479;-63
2022/03/01 02:37:46;;;;;;;16.80;9.50;;;2.50;99.90;;;;;;5038701;28;20492;-63
2022/03/01 02:40:15;;;;;;;15.27;9.57;;;2.40;99.90;;;;;;5031057;28;20887;-63
2022/03/01 02:42:46;;;;;;;16.00;9.53;;;2.40;99.90;;;;;;5030705;28;20490;-63
2022/03/01 02:45:19;;;;;;;18.10;9.90;;;2.40;99.90;;;;;;5030989;28;20477;-63
2022/03/01 02:47:48;;;;;;;15.03;9.13;;;2.40;99.90;;;;;;5039263;28;20475;-63
2022/03/01 02:50:16;;;;;;;15.93;9.83;;;2.30;99.90;;;;;;5050893;28;20475;-63
2022/03/01 02:52:46;;;;;;;16.17;9.23;;;2.30;99.90;;;;;;5038780;28;20496;-63
2022/03/01 02:55:14;;;;;;;15.77;8.80;;;2.30;99.90;;;;;;5030978;28;20529;-63
2022/03/01 02:57:42;;;;;;;17.20;9.77;;;2.20;99.90;;;;;;5029089;28;20548;-63
2022/03/01 03:00:15;;;;;;;18.07;10.20;;;2.20;99.90;;;;;;5030905;28;20510;-63
2022/03/01 03:02:44;;;;;;;17.57;9.80;;;2.20;99.90;;;;;;5030372;28;20511;-63
2022/03/01 03:05:12;;;;;;;15.77;9.57;;;2.20;99.90;;;;;;5032926;28;20483;-63
2022/03/01 03:07:43;;;;;;;15.77;9.37;;;2.20;99.90;;;;;;5031441;28;20486;-63
2022/03/01 03:10:12;;;;;;;17.20;9.67;;;2.20;99.90;;;;;;5050485;28;20468;-62
2022/03/01 03:12:44;;;;;;;15.37;8.97;;;2.20;99.90;;;;;;5038464;28;20870;-63
2022/03/01 03:15:13;;;;;;;15.07;8.83;;;2.10;99.90;;;;;;5030839;28;20478;-63
2022/03/01 03:17:41;;;;;;;16.80;8.97;;;2.10;99.90;;;;;;5023399;28;20530;-63
2022/03/01 03:20:10;;;;;;;17.20;8.83;;;2.10;99.90;;;;;;5030539;28;20556;-63
2022/03/01 03:22:39;;;;;;;17.23;9.30;;;2.10;99.90;;;;;;5029939;28;20467;-63
2022/03/01 03:25:08;;;;;;;16.10;9.03;;;2.10;99.90;;;;;;5030598;28;20471;-63
2022/03/01 03:27:38;;;;;;;15.50;9.17;;;2.00;99.90;;;;;;5037142;28;21002;-62
2022/03/01 03:30:07;;;;;;;14.50;8.33;;;2.00;99.90;;;;;;5050437;28;20487;-58
2022/03/01 03:32:36;;;;;;;15.27;8.73;;;2.10;99.90;;;;;;5039361;28;20472;-62
2022/03/01 03:35:06;;;;;;;16.40;9.27;;;2.00;99.90;;;;;;5032557;28;20524;-63
2022/03/01 03:37:34;;;;;;;16.80;9.30;;;2.00;99.90;;;;;;5031383;28;20503;-63
2022/03/01 03:40:03;;;;;;;15.33;8.50;;;2.00;99.90;;;;;;5030606;28;20478;-63
2022/03/01 03:42:31;;;;;;;15.03;9.43;;;2.00;99.90;;;;;;5030403;28;20881;-63
2022/03/01 03:45:06;;;;;;;15.83;7.80;;;1.90;99.90;;;;;;5033134;28;20479;-63
2022/03/01 03:47:34;;;;;;;18.00;9.13;;;1.90;99.90;;;;;;5040784;28;20877;-63
2022/03/01 03:50:02;;;;;;;15.17;8.17;;;1.90;99.90;;;;;;5054422;28;20487;-63
2022/03/01 03:52:30;;;;;;;16.17;9.43;;;2.00;99.90;;;;;;5044104;28;20956;-63
2022/03/01 03:54:59;;;;;;;15.13;8.83;;;2.00;99.90;;;;;;5034102;28;20461;-63
2022/03/01 03:57:27;;;;;;;16.37;8.53;;;2.10;99.90;;;;;;5033557;28;20469;-63
2022/03/01 03:59:56;;;;;;;14.60;8.73;;;2.10;99.90;;;;;;5034000;28;21037;-63
2022/03/01 04:02:26;;;;;;;16.10;9.07;;;2.00;99.90;;;;;;5033734;28;20470;-62
2022/03/01 04:04:54;;;;;;;18.10;9.43;;;2.00;99.90;;;;;;5034491;28;20893;-63
2022/03/01 04:07:23;;;;;;;15.13;9.10;;;1.90;99.90;;;;;;5041418;28;20891;-63
2022/03/01 04:09:52;;;;;;;14.07;8.67;;;1.90;99.90;;;;;;5053887;28;20519;-63
2022/03/01 04:12:21;;;;;;;17.80;9.93;;;1.90;99.90;;;;;;5041396;28;20481;-63
2022/03/01 04:14:49;;;;;;;15.13;9.10;;;1.90;99.90;;;;;;5013845;28;20572;-63
2022/03/01 04:17:17;;;;;;;14.30;9.50;;;1.90;99.90;;;;;;5021857;28;20468;-63
2022/03/01 04:19:46;;;;;;;15.27;9.10;;;1.90;99.90;;;;;;5033540;28;20884;-63
2022/03/01 04:22:14;;;;;;;14.60;9.20;;;1.90;99.90;;;;;;5033286;28;20469;-63
2022/03/01 04:24:43;;;;;;;15.67;8.97;;;1.80;99.90;;;;;;5033459;28;20503;-63
2022/03/01 04:27:11;;;;;;;13.93;8.90;;;1.80;99.90;;;;;;5036893;28;20484;-63
2022/03/01 04:29:39;;;;;;;16.20;9.17;;;1.70;99.90;;;;;;5053324;28;20474;-63
2022/03/01 04:32:08;;;;;;;17.77;10.57;;;1.70;99.90;;;;;;5046429;28;20472;-63
2022/03/01 04:34:36;;;;;;;21.83;11.03;;;1.70;99.90;;;;;;5031242;28;20993;-63
2022/03/01 04:37:08;;;;;;;22.80;11.87;;;1.70;99.90;;;;;;5038130;28;20471;-63
2022/03/01 04:39:37;;;;;;;31.10;16.37;;;1.70;99.90;;;;;;5033265;28;20468;-62
2022/03/01 04:42:05;;;;;;;24.93;14.07;;;1.70;99.90;;;;;;5033430;28;20486;-63
2022/03/01 04:44:35;;;;;;;20.50;11.87;;;1.60;99.90;;;;;;5033292;28;20503;-63
2022/03/01 04:47:04;;;;;;;20.60;11.63;;;1.70;99.90;;;;;;5035488;28;20888;-63
2022/03/01 04:49:32;;;;;;;15.47;9.30;;;1.70;99.90;;;;;;5053109;28;20525;-63
2022/03/01 04:52:00;;;;;;;14.47;9.00;;;1.60;99.90;;;;;;5047126;28;20479;-63
2022/03/01 04:54:30;;;;;;;15.33;8.73;;;1.60;99.90;;;;;;5032999;28;21007;-62
2022/03/01 04:56:58;;;;;;;15.10;8.90;;;1.60;99.90;;;;;;5032063;28;20480;-63
2022/03/01 04:59:26;;;;;;;15.43;8.87;;;1.60;99.90;;;;;;5032741;28;20970;-62
2022/03/01 05:01:54;;;;;;;16.83;9.43;;;1.50;99.90;;;;;;5032726;28;20475;-62
2022/03/01 05:04:23;;;;;;;16.73;9.23;;;1.50;99.90;;;;;;5029447;28;20478;-63
2022/03/01 05:06:52;;;;;;;14.20;8.37;;;1.50;99.90;;;;;;5040568;28;20470;-63
2022/03/01 05:09:21;;;;;;;16.27;9.57;;;1.50;99.90;;;;;;5052934;28;21076;-63
2022/03/01 05:11:51;;;;;;;14.10;8.37;;;1.50;99.90;;;;;;5048245;28;20500;-63
2022/03/01 05:14:20;;;;;;;15.00;8.73;;;1.40;99.90;;;;;;5032701;28;21011;-63
2022/03/01 05:16:48;;;;;;;15.13;8.80;;;1.50;99.90;;;;;;5032482;28;20477;-63
2022/03/01 05:19:17;;;;;;;17.33;9.83;;;1.50;99.90;;;;;;5032542;28;20476;-63
2022/03/01 05:21:45;;;;;;;15.10;9.13;;;1.50;99.90;;;;;;5032117;28;21022;-63
2022/03/01 05:24:14;;;;;;;17.33;9.30;;;1.50;99.90;;;;;;5032226;28;20560;-63
2022/03/01 05:26:44;;;;;;;16.80;8.93;;;1.50;99.90;;;;;;5032017;28;20534;-63
2022/03/01 05:29:14;;;;;;;15.37;9.03;;;1.40;99.90;;;;;;5032160;28;20478;-63
2022/03/01 05:31:42;;;;;;;15.00;8.40;;;1.40;99.90;;;;;;5032113;28;20903;-63
2022/03/01 05:34:10;;;;;;;15.63;8.87;;;1.40;99.90;;;;;;5025553;28;20477;-63
2022/03/01 05:36:39;;;;;;;15.70;9.43;;;1.40;99.90;;;;;;5040214;28;20848;-63
2022/03/01 05:39:07;;;;;;;15.50;8.67;;;1.40;99.90;;;;;;5031914;28;20468;-62
2022/03/01 05:41:35;;;;;;;15.27;8.53;;;1.40;99.90;;;;;;5032283;28;20847;-63
2022/03/01 05:44:04;;;;;;;15.23;9.17;;;1.40;99.90;;;;;;5027160;28;20473;-63
2022/03/01 05:46:34;;;;;;;14.43;8.60;;;1.30;99.90;;;;;;5016778;28;20490;-63
2022/03/01 05:49:02;;;;;;;15.80;8.87;;;1.30;99.90;;;;;;5039140;28;20468;-63
2022/03/01 05:51:30;;;;;;;14.97;9.37;;;1.40;99.90;;;;;;5031256;28;20483;-63
2022/03/01 05:53:58;;;;;;;17.30;9.53;;;1.30;99.90;;;;;;5040197;28;20473;-63
2022/03/01 05:56:27;;;;;;;18.13;9.30;;;1.30;99.90;;;;;;5020134;28;20472;-62
2022/03/01 05:58:55;;;;;;;14.07;8.57;;;1.20;99.90;;;;;;5039785;28;20494;-63
2022/03/01 06:01:23;;;;;;;17.30;9.40;;;1.30;99.90;;;;;;5049022;28;20524;-63
2022/03/01 06:03:53;;;;;;;15.80;9.20;;;1.30;99.90;;;;;;5035974;28;20522;-63
2022/03/01 06:06:21;;;;;;;16.37;8.77;;;1.30;99.90;;;;;;5038350;28;20547;-63
2022/03/01 06:08:49;;;;;;;16.30;9.07;;;1.30;99.90;;;;;;5034503;28;20482;-63
2022/03/01 06:11:18;;;;;;;16.90;9.87;;;1.30;99.90;;;;;;5062031;28;20483;-63
2022/03/01 06:13:49;;;;;;;17.77;8.67;;;1.30;99.90;;;;;;5032776;28;20507;-63
2022/03/01 06:16:17;;;;;;;14.03;8.07;;;1.40;99.90;;;;;;5048548;28;20467;-63
2022/03/01 06:18:46;;;;;;;18.20;9.67;;;1.40;99.90;;;;;;5032360;28;20476;-63
2022/03/01 06:21:18;;;;;;;14.97;8.93;;;1.30;99.90;;;;;;5046766;28;20494;-63
2022/03/01 06:23:46;;;;;;;16.13;9.00;;;1.30;99.90;;;;;;5038721;28;20508;-63
2022/03/01 06:26:14;;;;;;;16.60;9.57;;;1.30;99.90;;;;;;5034160;28;20477;-63
2022/03/01 06:28:43;;;;;;;19.30;9.63;;;1.30;99.90;;;;;;5042282;28;20830;-64
2022/03/01 06:31:11;;;;;;;16.77;9.67;;;1.30;99.90;;;;;;5047148;28;20532;-64
2022/03/01 06:33:39;;;;;;;17.30;9.60;;;1.30;99.90;;;;;;5039066;28;20471;-63
2022/03/01 06:36:07;;;;;;;16.13;8.73;;;1.30;99.90;;;;;;5045644;28;20528;-64
2022/03/01 06:38:37;;;;;;;16.03;9.07;;;1.30;99.90;;;;;;5040523;28;20561;-63
2022/03/01 06:41:05;;;;;;;14.80;9.37;;;1.40;99.90;;;;;;5046389;28;21010;-63
2022/03/01 06:43:33;;;;;;;16.77;9.80;;;1.30;99.90;;;;;;5040415;28;20479;-63
2022/03/01 06:46:01;;;;;;;14.97;8.73;;;1.30;99.90;;;;;;5044672;28;20558;-64
2022/03/01 06:48:30;;;;;;;14.20;9.40;;;2.10;99.90;;;;;;5043996;28;20488;-64
2022/03/01 06:50:58;;;;;;;15.63;9.33;;;1.90;99.90;;;;;;5045369;28;20458;-64
2022/03/01 06:53:26;;;;;;;16.97;9.23;;;1.80;99.90;;;;;;5041098;28;20472;-63
2022/03/01 06:55:56;;;;;;;16.07;9.83;;;1.70;99.90;;;;;;5037012;28;20928;-64
2022/03/01 06:58:24;;;;;;;15.00;8.90;;;1.70;99.90;;;;;;5038661;28;20896;-64
2022/03/01 07:00:53;;;;;;;16.90;10.00;;;1.70;99.90;;;;;;5036954;28;20472;-64
2022/03/01 07:03:21;;;;;;;16.63;9.03;;;1.80;99.90;;;;;;5035696;28;20855;-64
2022/03/01 07:05:49;;;;;;;15.80;9.20;;;1.80;99.90;;;;;;5043422;28;21030;-64
2022/03/01 07:08:20;;;;;;;14.83;8.20;;;1.90;99.90;;;;;;5045932;28;20479;-64
2022/03/01 07:10:48;;;;;;;17.20;9.60;;;2.00;99.90;;;;;;5037278;28;20491;-64
2022/03/01 07:13:19;;;;;;;16.03;9.67;;;2.00;99.90;;;;;;5030547;28;20503;-64
2022/03/01 07:15:47;;;;;;;16.53;9.90;;;2.00;99.90;;;;;;5030743;28;21023;-64
2022/03/01 07:18:16;;;;;;;14.90;9.63;;;2.10;99.90;;;;;;5031071;28;20475;-64
2022/03/01 07:20:44;;;;;;;16.03;9.53;;;2.10;99.90;;;;;;5036958;28;20475;-64
2022/03/01 07:23:13;;;;;;;16.23;9.27;;;2.30;99.90;;;;;;5036961;28;20506;-64
2022/03/01 07:25:42;;;;;;;15.93;9.87;;;2.40;99.90;;;;;;5035054;28;20475;-64
2022/03/01 07:28:10;;;;;;;15.77;9.20;;;2.50;99.90;;;;;;5045001;28;20478;-64
2022/03/01 07:30:39;;;;;;;17.27;9.57;;;2.70;99.90;;;;;;5032924;28;20471;-64
2022/03/01 07:33:08;;;;;;;17.80;10.10;;;2.90;99.90;;;;;;5036655;28;20859;-64
2022/03/01 07:35:36;;;;;;;17.00;9.77;;;3.10;99.90;;;;;;5035784;28;21008;-60
2022/03/01 07:38:04;;;;;;;15.33;10.30;;;3.20;99.90;;;;;;5036934;28;20472;-64
2022/03/01 07:40:32;;;;;;;15.97;9.83;;;3.30;99.90;;;;;;5045290;28;20475;-64
2022/03/01 07:43:00;;;;;;;20.47;10.30;;;3.60;99.90;;;;;;5043400;28;20558;-64
2022/03/01 07:45:29;;;;;;;18.73;10.47;;;3.80;99.90;;;;;;5048343;28;20468;-64
2022/03/01 07:48:00;;;;;;;17.53;10.33;;;3.90;99.90;;;;;;5053169;28;20472;-64
2022/03/01 07:50:29;;;;;;;16.03;9.77;;;4.00;99.90;;;;;;5048369;28;20486;-64
2022/03/01 07:53:00;;;;;;;15.77;10.17;;;4.10;99.90;;;;;;5049517;28;20485;-64
2022/03/01 07:55:29;;;;;;;17.03;10.10;;;4.30;99.90;;;;;;5047861;28;20467;-61
2022/03/01 07:57:57;;;;;;;15.90;10.00;;;4.20;99.90;;;;;;5038074;28;20458;-64
2022/03/01 08:00:25;;;;;;;19.10;10.77;;;4.30;99.90;;;;;;5056587;28;20513;-64
2022/03/01 08:02:53;;;;;;;17.70;10.90;;;4.40;99.90;;;;;;5049405;28;20534;-64
2022/03/01 08:05:24;;;;;;;18.37;10.57;;;4.70;99.90;;;;;;5048278;28;20501;-64
2022/03/01 08:07:58;;;;;;;16.83;10.40;;;4.70;99.90;;;;;;5052339;28;20480;-64
2022/03/01 08:10:27;;;;;;;15.07;10.50;;;4.80;99.90;;;;;;5048156;28;20468;-63
2022/03/01 08:12:55;;;;;;;17.97;10.70;;;4.90;99.90;;;;;;5049383;28;20469;-64
2022/03/01 08:15:26;;;;;;;19.20;10.73;;;5.00;99.90;;;;;;5048323;28;20896;-63
2022/03/01 08:17:55;;;;;;;16.63;9.67;;;5.10;99.90;;;;;;5049135;28;21001;-64
2022/03/01 08:20:26;;;;;;;15.80;9.97;;;5.20;99.90;;;;;;5048318;28;20555;-64
2022/03/01 08:22:57;;;;;;;19.80;12.23;;;5.10;99.90;;;;;;5047530;28;20500;-63
2022/03/01 08:25:25;;;;;;;17.87;10.80;;;5.00;99.90;;;;;;5031858;28;20470;-63
2022/03/01 08:27:53;;;;;;;18.90;11.47;;;5.10;99.90;;;;;;5027476;28;20885;-63
2022/03/01 08:30:21;;;;;;;17.80;10.77;;;5.20;99.90;;;;;;5042223;28;20470;-64
2022/03/01 08:32:50;;;;;;;17.93;11.30;;;5.40;99.90;;;;;;5038835;28;20834;-63
2022/03/01 08:35:18;;;;;;;16.83;11.13;;;5.40;99.90;;;;;;5044987;28;20288;-64
2022/03/01 08:37:48;;;;;;;18.20;11.40;;;5.40;99.90;;;;;;5032567;28;20494;-64
2022/03/01 08:40:18;;;;;;;16.70;10.97;;;5.30;99.90;;;;;;5027640;28;20526;-62
2022/03/01 08:42:46;;;;;;;18.53;11.70;;;5.30;99.90;;;;;;5038293;28;21076;-63
2022/03/01 08:45:15;;;;;;;19.53;12.43;;;5.40;99.90;;;;;;5036562;28;20545;-63
2022/03/01 08:47:43;;;;;;;19.03;11.77;;;5.60;99.90;;;;;;5030709;28;20232;-63
2022/03/01 08:50:12;;;;;;;19.97;12.03;;;5.80;99.90;;;;;;5026461;28;20998;-63
2022/03/01 08:53:02;;;;;;;17.67;11.13;;;6.00;99.90;;;;;;5030737;28;20236;-63
2022/03/01 08:55:30;;;;;;;18.17;11.33;;;6.20;99.90;;;;;;5026454;28;20235;-63
2022/03/01 08:57:59;;;;;;;23.00;10.83;;;6.40;99.90;;;;;;5027296;28;20291;-62
2022/03/01 09:00:28;;;;;;;19.83;11.40;;;6.60;99.90;;;;;;5027304;28;20592;-62
2022/03/01 09:02:57;;;;;;;17.50;11.03;;;6.60;99.90;;;;;;5020535;28;20640;-61
2022/03/01 09:05:26;;;;;;;17.30;11.70;;;6.80;99.90;;;;;;5040396;28;20343;-64
2022/03/01 09:07:55;;;;;;;17.00;11.30;;;6.90;99.90;;;;;;5027621;28;20709;-63
2022/03/01 09:10:27;;;;;;;17.10;11.40;;;7.10;99.90;;;;;;5026914;28;20240;-60
2022/03/01 09:12:57;;;;;;;19.03;12.53;;;7.30;99.90;;;;;;5027212;28;20248;-63
2022/03/01 09:15:31;;;;;;;18.23;11.17;;;7.60;99.90;;;;;;5027779;28;20243;-63
2022/03/01 09:18:00;;;;;;;20.03;12.37;;;7.80;99.90;;;;;;5027877;28;20251;-63
2022/03/01 09:20:29;;;;;;;17.37;11.63;;;7.90;99.90;;;;;;5027282;28;20247;-63
2022/03/01 09:22:58;;;;;;;18.93;12.43;;;8.00;99.90;;;;;;5026289;28;20248;-62
2022/03/01 09:25:28;;;;;;;18.17;12.17;;;8.00;99.90;;;;;;5027522;28;20654;-63
2022/03/01 09:27:57;;;;;;;17.77;11.50;;;8.30;99.90;;;;;;5026444;28;20286;-62
2022/03/01 09:30:25;;;;;;;20.93;11.80;;;8.40;99.90;;;;;;5026804;28;20240;-63
2022/03/01 09:32:54;;;;;;;17.17;11.70;;;8.30;99.90;;;;;;5027663;28;20244;-63
2022/03/01 09:35:23;;;;;;;16.23;10.67;;;8.30;99.90;;;;;;5025599;28;20240;-63
2022/03/01 09:37:51;;;;;;;19.93;11.93;;;8.30;99.90;;;;;;5027675;28;20294;-63
2022/03/01 09:40:19;;;;;;;21.30;12.03;;;8.40;99.90;;;;;;5025770;28;20244;-63
2022/03/01 09:42:55;;;;;;;18.67;12.10;;;8.40;99.90;;;;;;5033534;28;20279;-63
2022/03/01 09:45:23;;;;;;;17.40;12.27;;;8.70;99.90;;;;;;5025740;28;20779;-63
2022/03/01 09:47:52;;;;;;;16.97;11.40;;;8.60;99.90;;;;;;5042123;28;20692;-63
2022/03/01 09:50:27;;;;;;;16.20;11.40;;;8.70;99.90;;;;;;5043505;28;20240;-63
2022/03/01 09:52:56;;;;;;;17.00;11.57;;;8.70;99.90;;;;;;5038653;28;20243;-63
2022/03/01 09:55:24;;;;;;;19.07;12.40;;;8.50;99.90;;;;;;5025770;28;20243;-63
2022/03/01 09:57:57;;;;;;;17.47;12.13;;;8.20;99.90;;;;;;5043166;28;20232;-63
2022/03/01 10:00:26;;;;;;;17.90;11.97;;;8.00;99.90;;;;;;5051503;28;20315;-62
2022/03/01 10:02:57;;;;;;;18.40;12.37;;;7.80;99.90;;;;;;5038361;28;20616;-63
2022/03/01 10:05:34;;;;;;;17.13;12.17;;;7.90;99.90;;;;;;5031525;28;20636;-62
2022/03/01 10:08:10;;;;;;;17.43;11.70;;;8.00;99.90;;;;;;5042206;28;20698;-63
2022/03/01 10:10:41;;;;;;;18.37;12.13;;;8.10;99.90;;;;;;5051247;28;20289;-63
2022/03/01 10:13:14;;;;;;;18.87;11.70;;;8.10;99.90;;;;;;5036329;28;20652;-63
2022/03/01 10:15:42;;;;;;;17.07;11.80;;;8.10;99.90;;;;;;5031512;28;20249;-63
2022/03/01 10:18:13;;;;;;;16.23;11.43;;;8.10;99.90;;;;;;5031552;28;20243;-63
2022/03/01 10:20:44;;;;;;;18.30;11.63;;;8.10;99.90;;;;;;5031404;28;20651;-63
2022/03/01 10:23:13;;;;;;;16.47;10.83;;;8.30;99.90;;;;;;5031118;28;20696;-63
2022/03/01 10:25:43;;;;;;;18.73;12.50;;;8.40;99.90;;;;;;5027344;28;20738;-63
2022/03/01 10:28:12;;;;;;;17.50;12.07;;;8.70;99.90;;;;;;5046291;28;20240;-63
2022/03/01 10:30:46;;;;;;;18.50;12.10;;;8.70;99.90;;;;;;5051068;28;20244;-63
2022/03/01 10:33:16;;;;;;;17.37;11.93;;;8.80;99.90;;;;;;5035259;28;20268;-63
2022/03/01 10:35:57;;;;;;;19.90;12.30;;;8.70;99.90;;;;;;5031222;28;20244;-63
2022/03/01 10:38:26;;;;;;;16.53;11.93;;;8.70;99.90;;;;;;5030862;28;20239;-63
2022/03/01 10:40:58;;;;;;;17.63;12.40;;;8.70;99.90;;;;;;5031123;28;20323;-63
2022/03/01 10:43:29;;;;;;;19.47;12.57;;;8.60;99.90;;;;;;5031031;28;20700;-62
2022/03/01 10:45:57;;;;;;;20.80;13.17;;;8.60;99.90;;;;;;5031143;28;20260;-62
2022/03/01 10:48:30;;;;;;;17.13;12.23;;;8.70;99.90;;;;;;5044328;28;20240;-62
2022/03/01 10:51:02;;;;;;;17.13;11.63;;;8.60;99.90;;;;;;5050884;28;20337;-63
2022/03/01 10:53:32;;;;;;;15.70;10.33;;;8.60;99.90;;;;;;5031845;28;20291;-63
2022/03/01 10:56:02;;;;;;;17.10;11.63;;;8.70;99.90;;;;;;5035725;28;20235;-63
2022/03/01 10:58:31;;;;;;;16.90;11.97;;;8.80;99.90;;;;;;5030719;28;20232;-63
2022/03/01 11:01:00;;;;;;;18.53;11.90;;;8.80;99.90;;;;;;5031042;28;20235;-63
2022/03/01 11:03:30;;;;;;;18.07;12.77;;;8.90;99.90;;;;;;5030617;28;20256;-62
2022/03/01 11:06:00;;;;;;;17.97;12.70;;;8.80;99.90;;;;;;5030775;28;20236;-63
2022/03/01 11:08:34;;;;;;;19.10;12.80;;;8.70;99.90;;;;;;5044523;28;20239;-63
2022/03/01 11:11:04;;;;;;;18.00;12.40;;;8.60;99.90;;;;;;5050808;28;20258;-63
2022/03/01 11:13:46;;;;;;;17.27;12.53;;;8.70;99.90;;;;;;5032255;28;20235;-63
2022/03/01 11:16:32;;;;;;;18.53;12.17;;;8.60;99.90;;;;;;5030556;28;20236;-63
2022/03/01 11:19:14;;;;;;;18.33;12.77;;;8.50;99.90;;;;;;5010880;28;20236;-63
2022/03/01 11:21:46;;;;;;;18.37;12.73;;;8.60;99.90;;;;;;5015825;28;20237;-63
2022/03/01 11:24:17;;;;;;;19.63;13.00;;;8.60;99.90;;;;;;5029511;28;20320;-62
2022/03/01 11:26:46;;;;;;;18.57;12.80;;;8.60;99.90;;;;;;5037200;28;20247;-63
2022/03/01 11:29:18;;;;;;;20.23;13.33;;;8.60;99.90;;;;;;5030475;28;20245;-63
2022/03/01 11:31:58;;;;;;;18.23;12.63;;;8.50;99.90;;;;;;5022750;28;20774;-63
2022/03/01 11:34:27;;;;;;;19.47;12.13;;;8.40;99.90;;;;;;5037585;28;20484;-63
2022/03/01 11:36:57;;;;;;;17.90;12.67;;;8.50;99.90;;;;;;5029525;28;20238;-63
2022/03/01 11:39:30;;;;;;;17.70;12.60;;;8.60;99.90;;;;;;5038266;28;20262;-63
2022/03/01 11:42:04;;;;;;;18.40;13.13;;;8.60;99.90;;;;;;5015918;28;20571;-63
2022/03/01 11:44:36;;;;;;;16.20;12.07;;;8.50;99.90;;;;;;5030464;28;20268;-64
2022/03/01 11:47:09;;;;;;;20.00;14.23;;;8.50;99.90;;;;;;5032670;28;20243;-64
2022/03/01 11:49:40;;;;;;;16.50;11.73;;;8.50;99.90;;;;;;5049861;28;20236;-63
2022/03/01 11:52:21;;;;;;;19.03;13.20;;;8.50;99.90;;;;;;5028415;28;20237;-64
2022/03/01 11:54:53;;;;;;;16.93;11.60;;;8.30;99.90;;;;;;5024438;28;20351;-64
2022/03/01 11:57:25;;;;;;;18.40;12.80;;;8.40;99.90;;;;;;5034678;28;20666;-63
2022/03/01 11:59:57;;;;;;;21.33;13.27;;;8.30;99.90;;;;;;5050116;28;20663;-64
2022/03/01 12:02:27;;;;;;;18.80;12.67;;;8.30;99.90;;;;;;5042793;28;20319;-63
2022/03/01 12:04:56;;;;;;;18.03;12.17;;;8.30;99.90;;;;;;5042633;28;20286;-63
2022/03/01 12:07:27;;;;;;;19.70;12.87;;;8.20;99.90;;;;;;5050041;28;20228;-64
2022/03/01 12:09:57;;;;;;;18.03;12.37;;;8.20;99.90;;;;;;5045550;28;20236;-64
2022/03/01 12:12:34;;;;;;;18.83;12.43;;;8.30;99.90;;;;;;5031117;28;20332;-63
2022/03/01 12:15:06;;;;;;;18.30;12.63;;;8.40;99.90;;;;;;5040541;28;20227;-63
2022/03/01 12:17:43;;;;;;;19.70;13.27;;;8.50;99.90;;;;;;5029454;28;20241;-63
2022/03/01 12:20:13;;;;;;;18.17;12.87;;;8.70;99.90;;;;;;5010682;28;20798;-64
2022/03/01 12:22:55;;;;;;;18.60;13.53;;;8.50;99.90;;;;;;5010841;28;20244;-64
2022/03/01 12:25:24;;;;;;;17.60;12.40;;;8.50;99.90;;;;;;5006990;28;20238;-63
2022/03/01 12:27:53;;;;;;;20.57;14.77;;;8.50;99.90;;;;;;5013080;28;20249;-63
2022/03/01 12:30:25;;;;;;;21.30;13.97;;;8.40;99.90;;;;;;5023723;28;20244;-63
2022/03/01 12:32:56;;;;;;;18.63;13.30;;;8.40;99.90;;;;;;5012994;28;20289;-63
2022/03/01 12:35:26;;;;;;;20.20;13.53;;;8.60;99.90;;;;;;5011281;28;20246;-64
2022/03/01 12:37:54;;;;;;;19.13;12.87;;;8.70;99.90;;;;;;5010612;28;20229;-64
2022/03/01 12:40:27;;;;;;;21.53;13.40;;;8.60;99.90;;;;;;5007973;28;20268;-63
2022/03/01 12:43:03;;;;;;;20.60;13.43;;;8.60;99.90;;;;;;5015530;28;20720;-63
2022/03/01 12:45:34;;;;;;;19.10;12.67;;;8.60;99.90;;;;;;5010693;28;20252;-63
2022/03/01 12:48:08;;;;;;;22.10;14.20;;;8.60;99.90;;;;;;5015228;28;20299;-60
2022/03/01 12:50:44;;;;;;;21.90;14.40;;;8.60;99.90;;;;;;5008564;28;20319;-62
2022/03/01 12:53:13;;;;;;;21.17;13.80;;;8.70;99.90;;;;;;5007782;28;20266;-63